sensor_id;sensor_type;location;lat;lon;timestamp;P1;durP1;ratioP1;P2;durP2;ratioP2
13832;SDS011;6987;19.472;-99.276;2022-07-22T00:01:30;1.75;;;1.65;;
13832;SDS011;6987;19.472;-99.276;2022-07-22T00:04:01;1.63;;;1.52;;
13832;SDS011;6987;19.472;-99.276;2022-07-22T00:06:30;1.80;;;1.70;;
13832;SDS011;6987;19.472;-99.276;2022-07-22T00:08:59;1.92;;;1.83;;
13832;SDS011;6987;19.472;-99.276;2022-07-22T00:11:28;4.72;;;1.85;;
13832;SDS011;6987;19.472;-99.276;2022-07-22T00:13:58;2.83;;;1.90;;
13832;SDS011;6987;19.472;-99.276;2022-07-22T00:16:27;2.97;;;2.22;;
13832;SDS011;6987;19.472;-99.276;2022-07-22T00:18:56;7.32;;;2.80;;
13832;SDS011;6987;19.472;-99.276;2022-07-22T00:21:27;12.52;;;3.50;;
13832;SDS011;6987;19.472;-99.276;2022-07-22T00:23:57;5.85;;;2.72;;
13832;SDS011;6987;19.472;-99.276;2022-07-22T00:26:25;4.10;;;2.47;;
13832;SDS011;6987;19.472;-99.276;2022-07-22T00:28:54;4.60;;;2.20;;
13832;SDS011;6987;19.472;-99.276;2022-07-22T00:31:23;5.18;;;2.05;;
13832;SDS011;6987;19.472;-99.276;2022-07-22T00:33:52;5.47;;;2.20;;
13832;SDS011;6987;19.472;-99.276;2022-07-22T00:36:22;4.25;;;1.73;;
13832;SDS011;6987;19.472;-99.276;2022-07-22T00:38:55;6.63;;;2.30;;
13832;SDS011;6987;19.472;-99.276;2022-07-22T00:41:26;2.78;;;2.08;;
13832;SDS011;6987;19.472;-99.276;2022-07-22T00:43:57;1.95;;;1.83;;
13832;SDS011;6987;19.472;-99.276;2022-07-22T00:46:27;2.45;;;2.25;;
13832;SDS011;6987;19.472;-99.276;2022-07-22T00:48:56;3.92;;;2.00;;
13832;SDS011;6987;19.472;-99.276;2022-07-22T00:51:26;3.25;;;1.63;;
13832;SDS011;6987;19.472;-99.276;2022-07-22T00:53:57;2.20;;;2.10;;
13832;SDS011;6987;19.472;-99.276;2022-07-22T00:56:26;3.97;;;1.65;;
13832;SDS011;6987;19.472;-99.276;2022-07-22T00:58:55;4.40;;;2.30;;
13832;SDS011;6987;19.472;-99.276;2022-07-22T01:01:25;2.17;;;2.05;;
13832;SDS011;6987;19.472;-99.276;2022-07-22T01:03:54;2.78;;;1.90;;
13832;SDS011;6987;19.472;-99.276;2022-07-22T01:06:23;2.10;;;1.95;;
13832;SDS011;6987;19.472;-99.276;2022-07-22T01:08:52;5.97;;;1.90;;
13832;SDS011;6987;19.472;-99.276;2022-07-22T01:11:24;3.28;;;2.33;;
13832;SDS011;6987;19.472;-99.276;2022-07-22T01:13:54;5.15;;;2.03;;
13832;SDS011;6987;19.472;-99.276;2022-07-22T01:16:23;3.35;;;1.98;;
13832;SDS011;6987;19.472;-99.276;2022-07-22T01:18:52;2.55;;;2.08;;
13832;SDS011;6987;19.472;-99.276;2022-07-22T01:21:23;2.40;;;2.10;;
13832;SDS011;6987;19.472;-99.276;2022-07-22T01:23:52;2.58;;;2.28;;
13832;SDS011;6987;19.472;-99.276;2022-07-22T01:26:21;2.75;;;2.45;;
13832;SDS011;6987;19.472;-99.276;2022-07-22T01:28:50;5.18;;;2.20;;
13832;SDS011;6987;19.472;-99.276;2022-07-22T01:31:19;2.65;;;1.90;;
13832;SDS011;6987;19.472;-99.276;2022-07-22T01:33:48;5.40;;;2.67;;
13832;SDS011;6987;19.472;-99.276;2022-07-22T01:36:17;3.95;;;1.67;;
13832;SDS011;6987;19.472;-99.276;2022-07-22T01:38:50;3.20;;;2.35;;
13832;SDS011;6987;19.472;-99.276;2022-07-22T01:41:19;2.92;;;2.13;;
13832;SDS011;6987;19.472;-99.276;2022-07-22T01:43:51;3.40;;;1.98;;
13832;SDS011;6987;19.472;-99.276;2022-07-22T01:46:20;2.42;;;2.10;;
13832;SDS011;6987;19.472;-99.276;2022-07-22T01:48:50;3.97;;;2.35;;
13832;SDS011;6987;19.472;-99.276;2022-07-22T01:51:22;2.53;;;1.95;;
13832;SDS011;6987;19.472;-99.276;2022-07-22T01:53:53;2.35;;;2.15;;
13832;SDS011;6987;19.472;-99.276;2022-07-22T01:56:22;4.65;;;2.30;;
13832;SDS011;6987;19.472;-99.276;2022-07-22T01:58:51;2.45;;;2.17;;
13832;SDS011;6987;19.472;-99.276;2022-07-22T02:01:20;3.55;;;2.10;;
13832;SDS011;6987;19.472;-99.276;2022-07-22T02:03:50;5.07;;;2.60;;
13832;SDS011;6987;19.472;-99.276;2022-07-22T02:06:19;2.30;;;2.20;;
13832;SDS011;6987;19.472;-99.276;2022-07-22T02:08:48;2.60;;;2.38;;
13832;SDS011;6987;19.472;-99.276;2022-07-22T02:11:18;4.53;;;2.42;;
13832;SDS011;6987;19.472;-99.276;2022-07-22T02:13:47;6.35;;;2.42;;
13832;SDS011;6987;19.472;-99.276;2022-07-22T02:16:16;4.65;;;2.40;;
13832;SDS011;6987;19.472;-99.276;2022-07-22T02:18:45;2.58;;;1.90;;
13832;SDS011;6987;19.472;-99.276;2022-07-22T02:21:14;2.50;;;2.30;;
13832;SDS011;6987;19.472;-99.276;2022-07-22T02:23:44;4.95;;;2.92;;
13832;SDS011;6987;19.472;-99.276;2022-07-22T02:26:13;5.90;;;2.45;;
13832;SDS011;6987;19.472;-99.276;2022-07-22T02:28:44;2.13;;;2.00;;
13832;SDS011;6987;19.472;-99.276;2022-07-22T02:31:12;4.22;;;2.28;;
13832;SDS011;6987;19.472;-99.276;2022-07-22T02:33:41;4.13;;;2.20;;
13832;SDS011;6987;19.472;-99.276;2022-07-22T02:36:11;2.83;;;2.58;;
13832;SDS011;6987;19.472;-99.276;2022-07-22T02:38:39;3.70;;;2.13;;
13832;SDS011;6987;19.472;-99.276;2022-07-22T02:41:08;4.50;;;2.70;;
13832;SDS011;6987;19.472;-99.276;2022-07-22T02:43:37;2.53;;;2.33;;
13832;SDS011;6987;19.472;-99.276;2022-07-22T02:46:16;8.60;;;2.78;;
13832;SDS011;6987;19.472;-99.276;2022-07-22T02:48:45;6.45;;;2.80;;
13832;SDS011;6987;19.472;-99.276;2022-07-22T02:51:13;3.70;;;2.72;;
13832;SDS011;6987;19.472;-99.276;2022-07-22T02:53:42;3.47;;;2.47;;
13832;SDS011;6987;19.472;-99.276;2022-07-22T02:56:12;2.90;;;2.38;;
13832;SDS011;6987;19.472;-99.276;2022-07-22T02:58:42;7.43;;;3.50;;
13832;SDS011;6987;19.472;-99.276;2022-07-22T03:01:14;3.28;;;2.63;;
13832;SDS011;6987;19.472;-99.276;2022-07-22T03:03:43;5.32;;;2.72;;
13832;SDS011;6987;19.472;-99.276;2022-07-22T03:06:12;6.13;;;3.10;;
13832;SDS011;6987;19.472;-99.276;2022-07-22T03:08:41;3.92;;;2.67;;
13832;SDS011;6987;19.472;-99.276;2022-07-22T03:11:10;3.88;;;3.47;;
13832;SDS011;6987;19.472;-99.276;2022-07-22T03:13:39;4.00;;;3.60;;
13832;SDS011;6987;19.472;-99.276;2022-07-22T03:16:08;4.75;;;3.22;;
13832;SDS011;6987;19.472;-99.276;2022-07-22T03:18:38;5.68;;;3.22;;
13832;SDS011;6987;19.472;-99.276;2022-07-22T03:21:07;5.85;;;3.10;;
13832;SDS011;6987;19.472;-99.276;2022-07-22T03:23:36;4.95;;;3.53;;
13832;SDS011;6987;19.472;-99.276;2022-07-22T03:26:05;4.10;;;3.50;;
13832;SDS011;6987;19.472;-99.276;2022-07-22T03:28:33;5.53;;;3.72;;
13832;SDS011;6987;19.472;-99.276;2022-07-22T03:31:03;3.65;;;3.35;;
13832;SDS011;6987;19.472;-99.276;2022-07-22T03:33:33;3.88;;;3.40;;
13832;SDS011;6987;19.472;-99.276;2022-07-22T03:36:04;7.95;;;2.83;;
13832;SDS011;6987;19.472;-99.276;2022-07-22T03:38:33;3.55;;;3.25;;
13832;SDS011;6987;19.472;-99.276;2022-07-22T03:41:02;5.82;;;3.60;;
13832;SDS011;6987;19.472;-99.276;2022-07-22T03:43:31;9.07;;;3.53;;
13832;SDS011;6987;19.472;-99.276;2022-07-22T03:45:59;3.35;;;3.05;;
13832;SDS011;6987;19.472;-99.276;2022-07-22T03:48:29;6.55;;;3.40;;
13832;SDS011;6987;19.472;-99.276;2022-07-22T03:50:58;3.47;;;3.25;;
13832;SDS011;6987;19.472;-99.276;2022-07-22T03:53:29;6.63;;;3.78;;
13832;SDS011;6987;19.472;-99.276;2022-07-22T03:55:59;4.55;;;3.63;;
13832;SDS011;6987;19.472;-99.276;2022-07-22T03:58:28;6.20;;;3.58;;
13832;SDS011;6987;19.472;-99.276;2022-07-22T04:00:57;3.35;;;3.05;;
13832;SDS011;6987;19.472;-99.276;2022-07-22T04:03:26;5.32;;;3.85;;
13832;SDS011;6987;19.472;-99.276;2022-07-22T04:05:55;10.55;;;3.83;;
13832;SDS011;6987;19.472;-99.276;2022-07-22T04:08:24;3.35;;;3.05;;
13832;SDS011;6987;19.472;-99.276;2022-07-22T04:10:55;5.70;;;3.60;;
13832;SDS011;6987;19.472;-99.276;2022-07-22T04:13:26;8.13;;;4.05;;
13832;SDS011;6987;19.472;-99.276;2022-07-22T04:15:55;6.82;;;3.38;;
13832;SDS011;6987;19.472;-99.276;2022-07-22T04:18:24;13.38;;;3.70;;
13832;SDS011;6987;19.472;-99.276;2022-07-22T04:20:52;11.10;;;8.65;;
13832;SDS011;6987;19.472;-99.276;2022-07-22T04:23:21;7.93;;;6.78;;
13832;SDS011;6987;19.472;-99.276;2022-07-22T04:25:50;25.60;;;17.15;;
13832;SDS011;6987;19.472;-99.276;2022-07-22T04:28:21;23.77;;;15.77;;
13832;SDS011;6987;19.472;-99.276;2022-07-22T04:30:50;36.72;;;22.70;;
13832;SDS011;6987;19.472;-99.276;2022-07-22T04:33:19;16.55;;;11.93;;
13832;SDS011;6987;19.472;-99.276;2022-07-22T04:35:48;38.30;;;26.30;;
13832;SDS011;6987;19.472;-99.276;2022-07-22T04:38:17;22.67;;;17.92;;
13832;SDS011;6987;19.472;-99.276;2022-07-22T04:40:46;33.35;;;26.13;;
13832;SDS011;6987;19.472;-99.276;2022-07-22T04:43:14;34.92;;;24.83;;
13832;SDS011;6987;19.472;-99.276;2022-07-22T04:45:45;51.78;;;32.72;;
13832;SDS011;6987;19.472;-99.276;2022-07-22T04:48:14;58.42;;;38.15;;
13832;SDS011;6987;19.472;-99.276;2022-07-22T04:50:43;40.60;;;34.22;;
13832;SDS011;6987;19.472;-99.276;2022-07-22T04:53:12;40.42;;;31.05;;
13832;SDS011;6987;19.472;-99.276;2022-07-22T04:55:41;44.05;;;31.88;;
13832;SDS011;6987;19.472;-99.276;2022-07-22T04:58:10;42.65;;;29.13;;
13832;SDS011;6987;19.472;-99.276;2022-07-22T05:00:40;26.67;;;21.50;;
13832;SDS011;6987;19.472;-99.276;2022-07-22T05:03:11;28.10;;;18.92;;
13832;SDS011;6987;19.472;-99.276;2022-07-22T05:05:40;24.13;;;18.38;;
13832;SDS011;6987;19.472;-99.276;2022-07-22T05:08:09;32.22;;;18.05;;
13832;SDS011;6987;19.472;-99.276;2022-07-22T05:10:37;25.52;;;17.10;;
13832;SDS011;6987;19.472;-99.276;2022-07-22T05:13:06;23.73;;;16.60;;
13832;SDS011;6987;19.472;-99.276;2022-07-22T05:15:35;25.67;;;18.23;;
13832;SDS011;6987;19.472;-99.276;2022-07-22T05:18:04;24.75;;;16.55;;
13832;SDS011;6987;19.472;-99.276;2022-07-22T05:20:35;20.25;;;15.75;;
13832;SDS011;6987;19.472;-99.276;2022-07-22T05:23:05;23.65;;;14.55;;
13832;SDS011;6987;19.472;-99.276;2022-07-22T05:25:34;14.98;;;11.73;;
13832;SDS011;6987;19.472;-99.276;2022-07-22T05:28:03;16.25;;;10.75;;
13832;SDS011;6987;19.472;-99.276;2022-07-22T05:30:32;15.40;;;10.98;;
13832;SDS011;6987;19.472;-99.276;2022-07-22T05:33:01;13.73;;;10.65;;
13832;SDS011;6987;19.472;-99.276;2022-07-22T05:35:30;12.25;;;9.95;;
13832;SDS011;6987;19.472;-99.276;2022-07-22T05:38:01;16.85;;;10.65;;
13832;SDS011;6987;19.472;-99.276;2022-07-22T05:40:31;15.02;;;10.95;;
13832;SDS011;6987;19.472;-99.276;2022-07-22T05:43:01;15.38;;;10.98;;
13832;SDS011;6987;19.472;-99.276;2022-07-22T05:45:32;13.68;;;9.77;;
13832;SDS011;6987;19.472;-99.276;2022-07-22T05:48:01;21.60;;;10.30;;
13832;SDS011;6987;19.472;-99.276;2022-07-22T05:50:30;15.02;;;9.98;;
13832;SDS011;6987;19.472;-99.276;2022-07-22T05:52:59;21.58;;;10.70;;
13832;SDS011;6987;19.472;-99.276;2022-07-22T05:55:29;16.05;;;10.63;;
13832;SDS011;6987;19.472;-99.276;2022-07-22T05:57:58;11.23;;;9.85;;
13832;SDS011;6987;19.472;-99.276;2022-07-22T06:00:27;14.75;;;9.85;;
13832;SDS011;6987;19.472;-99.276;2022-07-22T06:02:56;14.07;;;11.38;;
13832;SDS011;6987;19.472;-99.276;2022-07-22T06:05:25;14.27;;;9.70;;
13832;SDS011;6987;19.472;-99.276;2022-07-22T06:07:54;15.20;;;10.95;;
13832;SDS011;6987;19.472;-99.276;2022-07-22T06:10:23;15.55;;;11.60;;
13832;SDS011;6987;19.472;-99.276;2022-07-22T06:12:54;16.85;;;11.18;;
13832;SDS011;6987;19.472;-99.276;2022-07-22T06:15:23;12.20;;;10.00;;
13832;SDS011;6987;19.472;-99.276;2022-07-22T06:17:51;12.73;;;10.18;;
13832;SDS011;6987;19.472;-99.276;2022-07-22T06:20:21;20.90;;;10.15;;
13832;SDS011;6987;19.472;-99.276;2022-07-22T06:22:50;15.82;;;10.45;;
13832;SDS011;6987;19.472;-99.276;2022-07-22T06:25:20;10.25;;;7.78;;
13832;SDS011;6987;19.472;-99.276;2022-07-22T06:27:51;10.30;;;9.10;;
13832;SDS011;6987;19.472;-99.276;2022-07-22T06:30:22;17.63;;;9.48;;
13832;SDS011;6987;19.472;-99.276;2022-07-22T06:32:52;11.27;;;8.90;;
13832;SDS011;6987;19.472;-99.276;2022-07-22T06:35:21;8.60;;;7.47;;
13832;SDS011;6987;19.472;-99.276;2022-07-22T06:37:50;14.18;;;8.05;;
13832;SDS011;6987;19.472;-99.276;2022-07-22T06:40:19;7.63;;;6.32;;
13832;SDS011;6987;19.472;-99.276;2022-07-22T06:42:48;7.78;;;5.72;;
13832;SDS011;6987;19.472;-99.276;2022-07-22T06:45:17;7.10;;;5.75;;
13832;SDS011;6987;19.472;-99.276;2022-07-22T06:47:47;7.18;;;5.60;;
13832;SDS011;6987;19.472;-99.276;2022-07-22T06:50:16;8.90;;;5.72;;
13832;SDS011;6987;19.472;-99.276;2022-07-22T06:52:45;7.30;;;5.22;;
13832;SDS011;6987;19.472;-99.276;2022-07-22T06:55:14;8.35;;;5.18;;
13832;SDS011;6987;19.472;-99.276;2022-07-22T06:57:44;7.05;;;5.38;;
13832;SDS011;6987;19.472;-99.276;2022-07-22T07:00:13;7.90;;;5.32;;
13832;SDS011;6987;19.472;-99.276;2022-07-22T07:02:42;5.63;;;5.15;;
13832;SDS011;6987;19.472;-99.276;2022-07-22T07:05:12;8.27;;;5.28;;
13832;SDS011;6987;19.472;-99.276;2022-07-22T07:07:41;6.25;;;5.65;;
13832;SDS011;6987;19.472;-99.276;2022-07-22T07:10:10;6.68;;;5.35;;
13832;SDS011;6987;19.472;-99.276;2022-07-22T07:12:41;9.15;;;5.53;;
13832;SDS011;6987;19.472;-99.276;2022-07-22T07:15:10;6.43;;;5.35;;
13832;SDS011;6987;19.472;-99.276;2022-07-22T07:17:40;5.75;;;4.95;;
13832;SDS011;6987;19.472;-99.276;2022-07-22T07:20:12;7.18;;;5.13;;
13832;SDS011;6987;19.472;-99.276;2022-07-22T07:22:41;6.68;;;5.05;;
13832;SDS011;6987;19.472;-99.276;2022-07-22T07:25:11;5.50;;;4.97;;
13832;SDS011;6987;19.472;-99.276;2022-07-22T07:27:39;6.30;;;5.30;;
13832;SDS011;6987;19.472;-99.276;2022-07-22T07:30:09;5.82;;;5.07;;
13832;SDS011;6987;19.472;-99.276;2022-07-22T07:32:38;6.93;;;4.70;;
13832;SDS011;6987;19.472;-99.276;2022-07-22T07:35:07;8.32;;;4.82;;
13832;SDS011;6987;19.472;-99.276;2022-07-22T07:37:38;7.13;;;4.82;;
13832;SDS011;6987;19.472;-99.276;2022-07-22T07:40:07;5.57;;;5.18;;
13832;SDS011;6987;19.472;-99.276;2022-07-22T07:42:36;5.60;;;5.10;;
13832;SDS011;6987;19.472;-99.276;2022-07-22T07:45:06;5.15;;;4.55;;
13832;SDS011;6987;19.472;-99.276;2022-07-22T07:47:35;6.05;;;4.93;;
13832;SDS011;6987;19.472;-99.276;2022-07-22T07:50:05;5.75;;;3.92;;
13832;SDS011;6987;19.472;-99.276;2022-07-22T07:52:39;5.05;;;4.40;;
13832;SDS011;6987;19.472;-99.276;2022-07-22T07:55:08;8.23;;;4.75;;
13832;SDS011;6987;19.472;-99.276;2022-07-22T07:57:37;9.65;;;4.70;;
13832;SDS011;6987;19.472;-99.276;2022-07-22T08:00:07;6.88;;;5.20;;
13832;SDS011;6987;19.472;-99.276;2022-07-22T08:02:37;10.05;;;4.78;;
13832;SDS011;6987;19.472;-99.276;2022-07-22T08:05:07;5.70;;;4.65;;
13832;SDS011;6987;19.472;-99.276;2022-07-22T08:07:36;7.20;;;4.35;;
13832;SDS011;6987;19.472;-99.276;2022-07-22T08:10:07;6.47;;;4.60;;
13832;SDS011;6987;19.472;-99.276;2022-07-22T08:12:36;7.45;;;4.30;;
13832;SDS011;6987;19.472;-99.276;2022-07-22T08:15:05;7.13;;;4.53;;
13832;SDS011;6987;19.472;-99.276;2022-07-22T08:17:34;4.20;;;3.90;;
13832;SDS011;6987;19.472;-99.276;2022-07-22T08:20:04;6.38;;;4.68;;
13832;SDS011;6987;19.472;-99.276;2022-07-22T08:22:33;4.35;;;3.97;;
13832;SDS011;6987;19.472;-99.276;2022-07-22T08:25:02;5.03;;;4.63;;
13832;SDS011;6987;19.472;-99.276;2022-07-22T08:27:33;4.63;;;3.65;;
13832;SDS011;6987;19.472;-99.276;2022-07-22T08:30:03;4.30;;;4.00;;
13832;SDS011;6987;19.472;-99.276;2022-07-22T08:32:32;4.72;;;4.28;;
13832;SDS011;6987;19.472;-99.276;2022-07-22T08:35:02;7.45;;;4.90;;
13832;SDS011;6987;19.472;-99.276;2022-07-22T08:37:31;6.03;;;4.18;;
13832;SDS011;6987;19.472;-99.276;2022-07-22T08:40:00;5.10;;;4.40;;
13832;SDS011;6987;19.472;-99.276;2022-07-22T08:42:29;8.38;;;4.28;;
13832;SDS011;6987;19.472;-99.276;2022-07-22T08:45:00;11.15;;;4.43;;
13832;SDS011;6987;19.472;-99.276;2022-07-22T08:47:29;6.22;;;4.43;;
13832;SDS011;6987;19.472;-99.276;2022-07-22T08:49:58;5.82;;;4.03;;
13832;SDS011;6987;19.472;-99.276;2022-07-22T08:52:27;13.85;;;3.75;;
13832;SDS011;6987;19.472;-99.276;2022-07-22T08:54:56;6.95;;;3.88;;
13832;SDS011;6987;19.472;-99.276;2022-07-22T08:57:25;5.97;;;4.00;;
13832;SDS011;6987;19.472;-99.276;2022-07-22T08:59:54;4.97;;;4.28;;
13832;SDS011;6987;19.472;-99.276;2022-07-22T09:02:26;4.88;;;3.85;;
13832;SDS011;6987;19.472;-99.276;2022-07-22T09:04:56;5.53;;;4.03;;
13832;SDS011;6987;19.472;-99.276;2022-07-22T09:07:26;7.38;;;3.92;;
13832;SDS011;6987;19.472;-99.276;2022-07-22T09:09:55;4.25;;;3.95;;
13832;SDS011;6987;19.472;-99.276;2022-07-22T09:12:25;6.22;;;4.03;;
13832;SDS011;6987;19.472;-99.276;2022-07-22T09:14:56;5.32;;;3.90;;
13832;SDS011;6987;19.472;-99.276;2022-07-22T09:17:28;5.45;;;4.03;;
13832;SDS011;6987;19.472;-99.276;2022-07-22T09:19:57;12.32;;;5.18;;
13832;SDS011;6987;19.472;-99.276;2022-07-22T09:22:36;7.53;;;5.38;;
13832;SDS011;6987;19.472;-99.276;2022-07-22T09:25:18;5.85;;;4.25;;
13832;SDS011;6987;19.472;-99.276;2022-07-22T09:27:48;7.93;;;4.32;;
13832;SDS011;6987;19.472;-99.276;2022-07-22T09:30:18;6.22;;;4.45;;
13832;SDS011;6987;19.472;-99.276;2022-07-22T09:32:49;8.85;;;4.55;;
13832;SDS011;6987;19.472;-99.276;2022-07-22T09:35:18;10.60;;;5.05;;
13832;SDS011;6987;19.472;-99.276;2022-07-22T09:37:49;8.80;;;4.22;;
13832;SDS011;6987;19.472;-99.276;2022-07-22T09:40:20;5.20;;;4.13;;
13832;SDS011;6987;19.472;-99.276;2022-07-22T09:42:50;7.57;;;4.72;;
13832;SDS011;6987;19.472;-99.276;2022-07-22T09:45:20;5.00;;;4.15;;
13832;SDS011;6987;19.472;-99.276;2022-07-22T09:47:51;5.60;;;4.32;;
13832;SDS011;6987;19.472;-99.276;2022-07-22T09:50:22;13.07;;;5.50;;
13832;SDS011;6987;19.472;-99.276;2022-07-22T09:52:52;7.15;;;4.32;;
13832;SDS011;6987;19.472;-99.276;2022-07-22T09:55:22;6.32;;;4.60;;
13832;SDS011;6987;19.472;-99.276;2022-07-22T09:57:52;6.22;;;4.60;;
13832;SDS011;6987;19.472;-99.276;2022-07-22T10:00:21;6.07;;;4.10;;
13832;SDS011;6987;19.472;-99.276;2022-07-22T10:02:53;5.72;;;4.40;;
13832;SDS011;6987;19.472;-99.276;2022-07-22T10:05:23;5.90;;;4.18;;
13832;SDS011;6987;19.472;-99.276;2022-07-22T10:07:52;7.85;;;4.47;;
13832;SDS011;6987;19.472;-99.276;2022-07-22T10:10:23;4.63;;;4.22;;
13832;SDS011;6987;19.472;-99.276;2022-07-22T10:12:52;4.55;;;4.15;;
13832;SDS011;6987;19.472;-99.276;2022-07-22T10:15:22;8.07;;;4.75;;
13832;SDS011;6987;19.472;-99.276;2022-07-22T10:17:53;5.50;;;4.35;;
13832;SDS011;6987;19.472;-99.276;2022-07-22T10:20:24;5.47;;;4.13;;
13832;SDS011;6987;19.472;-99.276;2022-07-22T10:22:54;6.22;;;5.00;;
13832;SDS011;6987;19.472;-99.276;2022-07-22T10:25:26;5.72;;;4.65;;
13832;SDS011;6987;19.472;-99.276;2022-07-22T10:27:56;6.38;;;4.13;;
13832;SDS011;6987;19.472;-99.276;2022-07-22T10:30:25;4.47;;;4.18;;
13832;SDS011;6987;19.472;-99.276;2022-07-22T10:33:03;5.45;;;4.90;;
13832;SDS011;6987;19.472;-99.276;2022-07-22T10:35:34;8.40;;;4.50;;
13832;SDS011;6987;19.472;-99.276;2022-07-22T10:38:04;9.85;;;4.95;;
13832;SDS011;6987;19.472;-99.276;2022-07-22T10:40:46;7.63;;;5.28;;
13832;SDS011;6987;19.472;-99.276;2022-07-22T10:43:15;6.65;;;4.97;;
13832;SDS011;6987;19.472;-99.276;2022-07-22T10:45:45;7.97;;;5.57;;
13832;SDS011;6987;19.472;-99.276;2022-07-22T10:48:17;12.13;;;4.88;;
13832;SDS011;6987;19.472;-99.276;2022-07-22T10:50:50;5.65;;;5.15;;
13832;SDS011;6987;19.472;-99.276;2022-07-22T10:53:21;10.65;;;5.82;;
13832;SDS011;6987;19.472;-99.276;2022-07-22T10:55:58;5.30;;;4.43;;
13832;SDS011;6987;19.472;-99.276;2022-07-22T10:58:49;6.88;;;4.75;;
13832;SDS011;6987;19.472;-99.276;2022-07-22T11:01:20;12.57;;;5.90;;
13832;SDS011;6987;19.472;-99.276;2022-07-22T11:03:51;10.45;;;4.88;;
13832;SDS011;6987;19.472;-99.276;2022-07-22T11:06:21;8.25;;;5.20;;
13832;SDS011;6987;19.472;-99.276;2022-07-22T11:08:52;12.50;;;4.78;;
13832;SDS011;6987;19.472;-99.276;2022-07-22T11:11:37;6.78;;;4.47;;
13832;SDS011;6987;19.472;-99.276;2022-07-22T11:14:14;5.32;;;4.70;;
13832;SDS011;6987;19.472;-99.276;2022-07-22T11:16:43;6.15;;;5.07;;
13832;SDS011;6987;19.472;-99.276;2022-07-22T11:19:14;7.47;;;4.72;;
13832;SDS011;6987;19.472;-99.276;2022-07-22T11:21:48;5.47;;;4.55;;
13832;SDS011;6987;19.472;-99.276;2022-07-22T11:24:17;6.50;;;5.00;;
13832;SDS011;6987;19.472;-99.276;2022-07-22T11:26:47;6.85;;;4.72;;
13832;SDS011;6987;19.472;-99.276;2022-07-22T11:29:16;6.25;;;4.85;;
13832;SDS011;6987;19.472;-99.276;2022-07-22T11:31:46;5.65;;;4.68;;
13832;SDS011;6987;19.472;-99.276;2022-07-22T11:34:17;5.75;;;4.63;;
13832;SDS011;6987;19.472;-99.276;2022-07-22T11:36:46;9.02;;;4.85;;
13832;SDS011;6987;19.472;-99.276;2022-07-22T11:39:17;6.28;;;5.35;;
13832;SDS011;6987;19.472;-99.276;2022-07-22T11:41:47;5.45;;;4.95;;
13832;SDS011;6987;19.472;-99.276;2022-07-22T11:44:17;8.90;;;5.32;;
13832;SDS011;6987;19.472;-99.276;2022-07-22T11:46:46;8.07;;;5.53;;
13832;SDS011;6987;19.472;-99.276;2022-07-22T11:49:17;5.40;;;4.40;;
13832;SDS011;6987;19.472;-99.276;2022-07-22T11:51:47;6.47;;;5.25;;
13832;SDS011;6987;19.472;-99.276;2022-07-22T11:54:15;10.13;;;5.47;;
13832;SDS011;6987;19.472;-99.276;2022-07-22T11:56:44;8.25;;;4.90;;
13832;SDS011;6987;19.472;-99.276;2022-07-22T11:59:14;7.07;;;4.50;;
13832;SDS011;6987;19.472;-99.276;2022-07-22T12:01:43;8.63;;;5.38;;
13832;SDS011;6987;19.472;-99.276;2022-07-22T12:04:13;11.32;;;4.90;;
13832;SDS011;6987;19.472;-99.276;2022-07-22T12:06:44;12.35;;;5.93;;
13832;SDS011;6987;19.472;-99.276;2022-07-22T12:09:14;11.75;;;5.05;;
13832;SDS011;6987;19.472;-99.276;2022-07-22T12:11:43;14.20;;;5.72;;
13832;SDS011;6987;19.472;-99.276;2022-07-22T12:14:13;9.30;;;5.13;;
13832;SDS011;6987;19.472;-99.276;2022-07-22T12:16:42;9.73;;;4.60;;
13832;SDS011;6987;19.472;-99.276;2022-07-22T12:19:12;5.47;;;4.68;;
13832;SDS011;6987;19.472;-99.276;2022-07-22T12:21:51;12.77;;;5.90;;
13832;SDS011;6987;19.472;-99.276;2022-07-22T12:24:28;8.65;;;5.47;;
13832;SDS011;6987;19.472;-99.276;2022-07-22T12:26:57;18.45;;;5.53;;
13832;SDS011;6987;19.472;-99.276;2022-07-22T12:29:27;17.20;;;5.82;;
13832;SDS011;6987;19.472;-99.276;2022-07-22T12:31:57;16.30;;;6.18;;
13832;SDS011;6987;19.472;-99.276;2022-07-22T12:34:30;12.93;;;5.75;;
13832;SDS011;6987;19.472;-99.276;2022-07-22T12:37:00;9.07;;;5.40;;
13832;SDS011;6987;19.472;-99.276;2022-07-22T12:39:30;13.43;;;6.10;;
13832;SDS011;6987;19.472;-99.276;2022-07-22T12:41:58;14.80;;;5.38;;
13832;SDS011;6987;19.472;-99.276;2022-07-22T12:44:27;17.60;;;5.60;;
13832;SDS011;6987;19.472;-99.276;2022-07-22T12:46:56;12.25;;;6.10;;
13832;SDS011;6987;19.472;-99.276;2022-07-22T12:49:25;21.42;;;6.00;;
13832;SDS011;6987;19.472;-99.276;2022-07-22T12:52:09;31.00;;;6.05;;
13832;SDS011;6987;19.472;-99.276;2022-07-22T12:54:39;13.25;;;5.80;;
13832;SDS011;6987;19.472;-99.276;2022-07-22T12:57:08;21.02;;;5.97;;
13832;SDS011;6987;19.472;-99.276;2022-07-22T12:59:37;16.63;;;6.35;;
13832;SDS011;6987;19.472;-99.276;2022-07-22T13:02:07;17.58;;;6.45;;
13832;SDS011;6987;19.472;-99.276;2022-07-22T13:04:36;9.90;;;5.30;;
13832;SDS011;6987;19.472;-99.276;2022-07-22T13:07:04;12.65;;;6.35;;
13832;SDS011;6987;19.472;-99.276;2022-07-22T13:09:35;7.35;;;5.03;;
13832;SDS011;6987;19.472;-99.276;2022-07-22T13:12:04;8.75;;;5.30;;
13832;SDS011;6987;19.472;-99.276;2022-07-22T13:14:33;9.07;;;5.40;;
13832;SDS011;6987;19.472;-99.276;2022-07-22T13:17:05;8.15;;;5.30;;
13832;SDS011;6987;19.472;-99.276;2022-07-22T13:19:34;9.18;;;4.90;;
13832;SDS011;6987;19.472;-99.276;2022-07-22T13:22:03;9.55;;;5.30;;
13832;SDS011;6987;19.472;-99.276;2022-07-22T13:24:32;9.55;;;6.13;;
13832;SDS011;6987;19.472;-99.276;2022-07-22T13:27:03;5.57;;;5.07;;
13832;SDS011;6987;19.472;-99.276;2022-07-22T13:29:33;7.13;;;5.82;;
13832;SDS011;6987;19.472;-99.276;2022-07-22T13:32:04;7.72;;;5.93;;
13832;SDS011;6987;19.472;-99.276;2022-07-22T13:34:33;7.15;;;5.88;;
13832;SDS011;6987;19.472;-99.276;2022-07-22T13:37:04;7.05;;;5.70;;
13832;SDS011;6987;19.472;-99.276;2022-07-22T13:39:33;6.47;;;5.47;;
13832;SDS011;6987;19.472;-99.276;2022-07-22T13:42:04;11.75;;;5.88;;
13832;SDS011;6987;19.472;-99.276;2022-07-22T13:44:33;10.27;;;7.10;;
13832;SDS011;6987;19.472;-99.276;2022-07-22T13:47:02;10.95;;;7.10;;
13832;SDS011;6987;19.472;-99.276;2022-07-22T13:49:31;15.73;;;6.57;;
13832;SDS011;6987;19.472;-99.276;2022-07-22T13:52:01;10.10;;;6.00;;
13832;SDS011;6987;19.472;-99.276;2022-07-22T13:54:30;10.60;;;8.13;;
13832;SDS011;6987;19.472;-99.276;2022-07-22T13:56:59;11.88;;;6.82;;
13832;SDS011;6987;19.472;-99.276;2022-07-22T13:59:31;10.15;;;8.18;;
13832;SDS011;6987;19.472;-99.276;2022-07-22T14:02:00;11.55;;;7.82;;
13832;SDS011;6987;19.472;-99.276;2022-07-22T14:04:29;10.55;;;7.22;;
13832;SDS011;6987;19.472;-99.276;2022-07-22T14:06:58;11.48;;;7.70;;
13832;SDS011;6987;19.472;-99.276;2022-07-22T14:09:28;10.38;;;7.43;;
13832;SDS011;6987;19.472;-99.276;2022-07-22T14:11:57;10.30;;;8.18;;
13832;SDS011;6987;19.472;-99.276;2022-07-22T14:14:26;17.35;;;9.15;;
13832;SDS011;6987;19.472;-99.276;2022-07-22T14:16:56;16.38;;;9.30;;
13832;SDS011;6987;19.472;-99.276;2022-07-22T14:19:25;14.02;;;8.88;;
13832;SDS011;6987;19.472;-99.276;2022-07-22T14:21:54;13.25;;;9.15;;
13832;SDS011;6987;19.472;-99.276;2022-07-22T14:24:23;14.70;;;9.23;;
13832;SDS011;6987;19.472;-99.276;2022-07-22T14:26:55;16.27;;;9.75;;
13832;SDS011;6987;19.472;-99.276;2022-07-22T14:29:23;15.25;;;8.93;;
13832;SDS011;6987;19.472;-99.276;2022-07-22T14:31:56;19.15;;;10.07;;
13832;SDS011;6987;19.472;-99.276;2022-07-22T14:34:25;14.80;;;9.35;;
13832;SDS011;6987;19.472;-99.276;2022-07-22T14:36:54;13.85;;;9.60;;
13832;SDS011;6987;19.472;-99.276;2022-07-22T14:39:23;12.23;;;10.13;;
13832;SDS011;6987;19.472;-99.276;2022-07-22T14:41:52;16.00;;;11.15;;
13832;SDS011;6987;19.472;-99.276;2022-07-22T14:44:22;19.05;;;10.40;;